Time;durP1;ratioP1;P1;durP2;ratioP2;P2;SDS_P1;SDS_P2;PMS_P1;PMS_P2;Temp;Humidity;BMP_temperature;BMP_pressure;BME280_temperature;BME280_humidity;BME280_pressure;Samples;Min_cycle;Max_cycle;Signal;HPM_P1;HPM_P2
2021/06/17 02:02:01;;;;;;;;;;;;;;;19.93;73.38;100846.16;5201381;23;2003;-59
2021/06/17 02:04:28;;;;;;;;;;;;;;;19.95;75.84;100854.94;4953675;28;1624;-68
2021/06/17 02:06:55;;;;;;;;;;;;;;;19.93;74.44;100860.44;4954791;28;1576;-68
2021/06/17 02:09:23;;;;;;;;;;;;;;;19.93;74.31;100868.47;4954682;28;1569;-68
2021/06/17 02:11:50;;;;;;;;;;;;;;;19.89;74.37;100864.38;4954829;28;1452;-68
2021/06/17 02:14:17;;;;;;;;;;;;;;;19.90;75.05;100857.22;4953832;29;1525;-68
2021/06/17 02:16:44;;;;;;;;;;;;;;;19.95;73.91;100871.03;4954886;28;1906;-68
2021/06/17 02:19:14;;;;;;;;;;;;;;;19.90;74.37;100859.88;4954008;28;1487;-67
2021/06/17 02:21:41;;;;;;;;;;;;;;;19.90;75.03;100860.72;4955351;28;1600;-68
2021/06/17 02:24:09;;;;;;;;;;;;;;;19.89;74.12;100852.81;4951384;29;1736;-68
2021/06/17 02:26:39;;;;;;;;;;;;;;;19.89;74.97;100860.84;4950353;29;1743;-59
2021/06/17 02:29:08;;;;;;;;;;;;;;;19.89;74.93;100860.84;4953762;29;1494;-59
2021/06/17 02:31:36;;;;;;;;;;;;;;;19.89;73.95;100861.69;4955043;28;1679;-67
2021/06/17 02:34:02;;;;;;;;;;;;;;;19.92;73.07;100864.13;4957504;28;1532;-68
2021/06/17 02:36:31;;;;;;;;;;;;;;;19.88;73.34;100861.88;4958955;28;1954;-59
2021/06/17 02:38:58;;;;;;;;;;;;;;;19.90;74.79;100857.22;4958955;29;1647;-68
2021/06/17 02:41:26;;;;;;;;;;;;;;;19.88;74.75;100859.19;4958866;28;1580;-68
2021/06/17 02:43:54;;;;;;;;;;;;;;;19.86;74.70;100862.84;4954967;28;1695;-60
2021/06/17 02:46:21;;;;;;;;;;;;;;;19.89;73.10;100866.22;4957329;28;1651;-68
2021/06/17 02:48:47;;;;;;;;;;;;;;;19.90;74.43;100868.78;4959094;28;1569;-59
2021/06/17 02:51:14;;;;;;;;;;;;;;;19.88;75.40;100864.53;4957930;29;1698;-68
2021/06/17 02:53:42;;;;;;;;;;;;;;;19.86;74.55;100857.47;4956290;29;1883;-68
2021/06/17 02:56:12;;;;;;;;;;;;;;;19.83;73.83;100862.25;4958058;28;1755;-67
2021/06/17 02:58:50;;;;;;;;;;;;;;;19.84;73.67;100869.34;4958247;28;1561;-59
2021/06/17 03:01:19;;;;;;;;;;;;;;;19.86;73.19;100870.88;4957103;28;1628;-60
2021/06/17 03:03:48;;;;;;;;;;;;;;;19.88;74.83;100875.28;4956899;28;1588;-59
2021/06/17 03:06:20;;;;;;;;;;;;;;;19.85;74.25;100877.22;4953731;28;1499;-68
2021/06/17 03:08:52;;;;;;;;;;;;;;;19.89;73.57;100871.59;4953070;29;1440;-67
2021/06/17 03:11:19;;;;;;;;;;;;;;;19.86;73.17;100862.84;4953115;28;1465;-59
2021/06/17 03:13:48;;;;;;;;;;;;;;;19.85;73.61;100876.38;4953244;28;1637;-68
2021/06/17 03:16:17;;;;;;;;;;;;;;;19.88;72.62;100872.59;4946358;29;1464;-68
2021/06/17 03:18:45;;;;;;;;;;;;;;;19.86;73.42;100868.19;4947310;29;1903;-68
2021/06/17 03:21:13;;;;;;;;;;;;;;;19.86;72.24;100876.25;4948616;29;1432;-59
2021/06/17 03:23:42;;;;;;;;;;;;;;;19.83;72.92;100871.16;4954052;28;1451;-68
2021/06/17 03:26:12;;;;;;;;;;;;;;;19.87;71.59;100866.34;4955253;28;1525;-59
2021/06/17 03:28:39;;;;;;;;;;;;;;;19.82;71.77;100872.16;4950946;29;1405;-59
2021/06/17 03:31:08;;;;;;;;;;;;;;;19.85;73.84;100881.75;4953651;28;1471;-59
2021/06/17 03:33:37;;;;;;;;;;;;;;;19.85;71.36;100882.59;4953559;29;1616;-68
2021/06/17 03:36:04;;;;;;;;;;;;;;;19.89;72.91;100893.91;4951939;29;1424;-68
2021/06/17 03:38:32;;;;;;;;;;;;;;;19.85;72.26;100885.28;4953165;28;1971;-68
2021/06/17 03:40:59;;;;;;;;;;;;;;;19.84;71.50;100890.81;4946157;28;1424;-68
2021/06/17 03:43:28;;;;;;;;;;;;;;;19.85;74.05;100890.66;4949355;28;1275;-68
2021/06/17 03:45:56;;;;;;;;;;;;;;;19.83;72.26;100897.97;4948037;28;1496;-59
2021/06/17 03:48:23;;;;;;;;;;;;;;;19.82;71.56;100896.31;4954682;29;1674;-59
2021/06/17 03:50:50;;;;;;;;;;;;;;;19.84;71.41;100882.75;4955286;28;1707;-68
2021/06/17 03:53:18;;;;;;;;;;;;;;;19.83;73.31;100897.97;4953817;28;1427;-67
2021/06/17 03:55:45;;;;;;;;;;;;;;;19.86;73.83;100911.16;4950240;28;1427;-59
2021/06/17 03:58:12;;;;;;;;;;;;;;;19.91;72.73;100901.81;4948848;29;1967;-59
2021/06/17 04:00:40;;;;;;;;;;;;;;;19.90;74.29;100910.88;4952655;29;1427;-69
2021/06/17 04:03:08;;;;;;;;;;;;;;;19.93;72.21;100915.97;4951473;29;1652;-58
2021/06/17 04:05:35;;;;;;;;;;;;;;;19.90;71.77;100913.56;4950376;29;1439;-70
2021/06/17 04:08:02;;;;;;;;;;;;;;;19.92;72.70;100900.84;4951127;28;1467;-59
2021/06/17 04:10:30;;;;;;;;;;;;;;;19.97;73.43;100915.53;4957211;28;1221;-66
2021/06/17 04:12:58;;;;;;;;;;;;;;;19.96;73.33;100905.78;4950070;28;1496;-59
2021/06/17 04:15:25;;;;;;;;;;;;;;;19.81;73.10;100916.06;4948812;28;1486;-58
2021/06/17 04:17:54;;;;;;;;;;;;;;;19.83;73.62;100911.41;4951029;29;1910;-68
2021/06/17 04:20:24;;;;;;;;;;;;;;;19.82;72.23;100908.88;4950775;29;1471;-67
2021/06/17 04:22:51;;;;;;;;;;;;;;;19.76;72.99;100918.31;4950223;28;1490;-58
2021/06/17 04:25:19;;;;;;;;;;;;;;;19.78;73.05;100913.66;4948330;29;1359;-59
2021/06/17 04:27:46;;;;;;;;;;;;;;;19.84;74.05;100929.22;4949751;29;1538;-58
2021/06/17 04:30:15;;;;;;;;;;;;;;;19.81;72.67;100924.09;4953722;29;1441;-58
2021/06/17 04:32:43;;;;;;;;;;;;;;;19.78;73.08;100931.63;4953238;29;1468;-69
2021/06/17 04:35:12;;;;;;;;;;;;;;;19.81;72.74;100917.91;4953465;29;1503;-58
2021/06/17 04:37:39;;;;;;;;;;;;;;;19.83;72.85;100916.78;4950658;29;1976;-67
2021/06/17 04:40:06;;;;;;;;;;;;;;;19.81;72.59;100923.28;4951642;29;1421;-58
2021/06/17 04:42:33;;;;;;;;;;;;;;;19.38;73.19;100919.84;4953084;29;1463;-67
2021/06/17 04:45:00;;;;;;;;;;;;;;;18.02;77.68;100919.66;4948217;29;1539;-58
2021/06/17 04:47:27;;;;;;;;;;;;;;;18.80;76.09;100924.84;4947828;29;1440;-58
2021/06/17 04:49:53;;;;;;;;;;;;;;;19.25;75.16;100924.56;4952287;29;1574;-66
2021/06/17 04:52:28;;;;;;;;;;;;;;;19.50;74.51;100909.00;4947307;29;1523;-58
2021/06/17 04:54:54;;;;;;;;;;;;;;;19.65;73.34;100921.91;4951967;28;1515;-59
2021/06/17 04:57:21;;;;;;;;;;;;;;;19.73;73.25;100932.00;4946852;29;1910;-67
2021/06/17 04:59:48;;;;;;;;;;;;;;;19.75;74.13;100930.03;4953771;28;1470;-58
2021/06/17 05:02:14;;;;;;;;;;;;;;;19.79;73.93;100926.09;4953881;29;1782;-67
2021/06/17 05:04:41;;;;;;;;;;;;;;;19.91;74.00;100936.72;4953005;28;1405;-67
2021/06/17 05:07:24;;;;;;;;;;;;;;;19.89;74.12;100919.91;4948340;29;1471;-59
2021/06/17 05:12:36;;;;;;;;;;;;;;;19.85;74.36;100925.53;4953390;29;1620;-67
2021/06/17 05:15:03;;;;;;;;;;;;;;;20.00;74.79;100933.22;4955523;28;1404;-67
2021/06/17 05:17:30;;;;;;;;;;;;;;;20.17;73.46;100940.56;4954195;28;1985;-59
2021/06/17 05:19:58;;;;;;;;;;;;;;;20.26;73.31;100949.66;4953773;28;1480;-66
2021/06/17 05:22:24;;;;;;;;;;;;;;;20.30;72.74;100936.81;4951582;28;1600;-67
2021/06/17 05:24:52;;;;;;;;;;;;;;;20.38;71.96;100920.81;4955278;28;1569;-59
2021/06/17 05:27:19;;;;;;;;;;;;;;;20.31;73.53;100933.09;4953319;29;1451;-68
2021/06/17 05:29:46;;;;;;;;;;;;;;;20.37;73.24;100940.59;4952873;28;1434;-67
2021/06/17 05:32:14;;;;;;;;;;;;;;;20.52;72.93;100947.25;4946371;29;1482;-61
2021/06/17 05:34:41;;;;;;;;;;;;;;;20.52;72.15;100928.47;4947185;28;1579;-61
2021/06/17 05:37:08;;;;;;;;;;;;;;;20.54;72.98;100933.69;4947000;29;1974;-69
2021/06/17 05:39:35;;;;;;;;;;;;;;;20.57;72.62;100928.91;4948906;28;1450;-61
2021/06/17 05:42:03;;;;;;;;;;;;;;;20.61;72.98;100934.84;4952726;28;1491;-61
2021/06/17 05:44:29;;;;;;;;;;;;;;;20.61;72.48;100927.66;4950629;28;1457;-61
2021/06/17 05:46:56;;;;;;;;;;;;;;;20.66;73.81;100935.28;4953349;29;1526;-61
2021/06/17 05:49:24;;;;;;;;;;;;;;;20.63;73.75;100930.16;4948258;29;1503;-59
2021/06/17 05:51:51;;;;;;;;;;;;;;;20.64;73.06;100951.53;4952680;28;1534;-59
2021/06/17 05:54:18;;;;;;;;;;;;;;;20.65;73.44;100942.50;4949442;29;1421;-67
2021/06/17 05:56:45;;;;;;;;;;;;;;;20.71;73.19;100949.16;4951848;29;1562;-59
2021/06/17 05:59:13;;;;;;;;;;;;;;;20.76;74.14;100940.66;4952869;28;2037;-59
2021/06/17 06:01:39;;;;;;;;;;;;;;;20.80;73.61;100950.97;4954769;28;1585;-62
2021/06/17 06:04:06;;;;;;;;;;;;;;;20.83;73.38;100968.63;4954882;28;1573;-73
2021/06/17 06:06:33;;;;;;;;;;;;;;;20.82;74.68;100966.94;4952126;28;1667;-70
2021/06/17 06:08:59;;;;;;;;;;;;;;;20.70;73.93;100957.34;4956831;28;1821;-59
2021/06/17 06:11:26;;;;;;;;;;;;;;;20.60;73.93;100968.94;4955022;28;1487;-58
2021/06/17 06:13:52;;;;;;;;;;;;;;;20.62;74.83;100982.22;4955998;28;1580;-64
2021/06/17 06:16:20;;;;;;;;;;;;;;;20.62;74.44;100977.69;4956288;28;1586;-64
2021/06/17 06:18:47;;;;;;;;;;;;;;;20.70;74.93;100973.47;4956389;28;1914;-65
2021/06/17 06:21:13;;;;;;;;;;;;;;;20.71;74.40;100953.66;4956811;29;1552;-66
2021/06/17 06:23:41;;;;;;;;;;;;;;;20.77;74.08;100962.00;4953376;29;1452;-66
2021/06/17 06:26:08;;;;;;;;;;;;;;;20.77;74.80;100962.00;4958075;28;1386;-66
2021/06/17 06:28:34;;;;;;;;;;;;;;;20.74;74.50;100973.03;4950909;28;1606;-67
2021/06/17 06:31:01;;;;;;;;;;;;;;;20.75;74.09;100969.38;4957733;29;1400;-66
2021/06/17 06:33:29;;;;;;;;;;;;;;;20.76;73.91;100965.66;4952920;29;1712;-59
2021/06/17 06:35:55;;;;;;;;;;;;;;;20.78;74.65;100966.38;4956046;29;1625;-59
2021/06/17 06:38:22;;;;;;;;;;;;;;;20.80;74.23;100971.63;4952518;29;1907;-59
2021/06/17 06:40:49;;;;;;;;;;;;;;;20.82;74.22;100964.25;4958861;29;1491;-66
2021/06/17 06:43:17;;;;;;;;;;;;;;;20.80;74.87;100959.03;4953441;29;1459;-59
2021/06/17 06:45:44;;;;;;;;;;;;;;;20.83;75.01;100965.94;4950371;29;1539;-67
2021/06/17 06:48:10;;;;;;;;;;;;;;;20.83;75.02;100960.56;4953100;28;1433;-67
2021/06/17 06:50:38;;;;;;;;;;;;;;;20.86;75.13;100962.97;4958205;28;1477;-66
2021/06/17 06:53:05;;;;;;;;;;;;;;;20.86;74.59;100969.19;4957971;28;1540;-66
2021/06/17 06:55:32;;;;;;;;;;;;;;;20.88;75.27;100976.28;4958839;28;1568;-67
2021/06/17 06:57:58;;;;;;;;;;;;;;;20.91;74.78;100987.59;4958068;28;1906;-66
2021/06/17 07:00:25;;;;;;;;;;;;;;;20.92;74.53;100989.28;4957696;28;1560;-59
2021/06/17 07:02:51;;;;;;;;;;;;;;;20.98;74.55;100991.41;4957370;28;1547;-59
2021/06/17 07:05:18;;;;;;;;;;;;;;;20.94;74.84;100987.31;4958367;28;1522;-59
2021/06/17 07:07:46;;;;;;;;;;;;;;;20.96;74.66;100998.75;4957193;28;1609;-60
2021/06/17 07:10:13;;;;;;;;;;;;;;;20.98;75.42;100980.66;4958334;28;1597;-66
2021/06/17 07:12:40;;;;;;;;;;;;;;;20.98;75.36;100996.78;4957573;28;1644;-60
2021/06/17 07:15:07;;;;;;;;;;;;;;;20.94;75.27;100987.31;4957950;28;1476;-60
2021/06/17 07:17:33;;;;;;;;;;;;;;;20.96;74.90;100995.22;4957054;28;1576;-67
2021/06/17 07:20:00;;;;;;;;;;;;;;;20.88;75.06;101004.00;4957829;28;1655;-59
2021/06/17 07:22:27;;;;;;;;;;;;;;;20.87;75.58;101007.69;4956466;28;1719;-67
2021/06/17 07:24:55;;;;;;;;;;;;;;;20.92;75.93;101021.53;4954290;28;1632;-60
2021/06/17 07:27:22;;;;;;;;;;;;;;;20.84;75.83;101013.34;4956688;28;1722;-59
2021/06/17 07:29:48;;;;;;;;;;;;;;;20.94;75.77;101016.88;4956856;29;1469;-61
2021/06/17 07:32:15;;;;;;;;;;;;;;;20.93;76.18;100996.38;4957477;28;1716;-69
2021/06/17 07:34:44;;;;;;;;;;;;;;;20.97;75.88;101016.59;4956343;28;1688;-65
2021/06/17 07:37:10;;;;;;;;;;;;;;;20.93;76.76;100999.06;4957006;28;1475;-59
2021/06/17 07:39:37;;;;;;;;;;;;;;;20.92;76.25;101015.31;4950974;28;1914;-66
2021/06/17 07:42:05;;;;;;;;;;;;;;;20.92;75.14;101010.78;4953643;28;1514;-66
2021/06/17 07:44:32;;;;;;;;;;;;;;;21.01;75.29;101003.72;4953695;29;1527;-59
2021/06/17 07:46:59;;;;;;;;;;;;;;;21.03;75.84;101005.28;4956355;28;1671;-66
2021/06/17 07:49:25;;;;;;;;;;;;;;;21.02;76.55;101006.25;4953261;28;1512;-66
2021/06/17 07:51:52;;;;;;;;;;;;;;;21.09;76.11;101000.31;4956860;28;1523;-59
2021/06/17 07:54:19;;;;;;;;;;;;;;;21.15;76.82;101010.47;4957477;28;1707;-59
2021/06/17 07:56:48;;;;;;;;;;;;;;;21.12;76.81;101010.78;4953666;29;1734;-59
2021/06/17 07:59:18;;;;;;;;;;;;;;;21.15;76.74;101015.84;4955626;28;1902;-59
2021/06/17 08:01:45;;;;;;;;;;;;;;;21.10;76.96;101010.91;4952326;28;1476;-59
2021/06/17 08:04:11;;;;;;;;;;;;;;;21.14;76.30;101009.63;4956400;28;1573;-60
2021/06/17 08:06:38;;;;;;;;;;;;;;;21.14;76.24;101016.88;4956496;28;1439;-60
2021/06/17 08:09:05;;;;;;;;;;;;;;;21.17;77.10;101009.38;4956291;28;1460;-60
2021/06/17 08:11:32;;;;;;;;;;;;;;;21.18;77.39;101024.50;4957188;28;1576;-60
2021/06/17 08:13:59;;;;;;;;;;;;;;;21.16;77.40;101033.72;4955954;28;1609;-67
2021/06/17 08:16:27;;;;;;;;;;;;;;;21.20;76.93;101025.19;4955091;28;1463;-66
2021/06/17 08:18:55;;;;;;;;;;;;;;;21.20;77.13;101022.50;4951882;29;1915;-68
2021/06/17 08:21:22;;;;;;;;;;;;;;;21.24;77.11;101018.53;4957126;29;1370;-62
2021/06/17 08:23:48;;;;;;;;;;;;;;;21.22;76.81;101023.22;4952472;28;2038;-67
2021/06/17 08:26:15;;;;;;;;;;;;;;;21.23;77.04;101013.31;4947479;28;1723;-60
2021/06/17 08:28:41;;;;;;;;;;;;;;;21.18;76.85;101000.28;4954532;28;1511;-67
2021/06/17 08:31:09;;;;;;;;;;;;;;;21.18;77.22;101018.28;4953523;28;1484;-60
2021/06/17 08:33:37;;;;;;;;;;;;;;;21.18;76.88;101016.44;4952759;29;2119;-68
2021/06/17 08:36:07;;;;;;;;;;;;;;;21.08;77.71;101004.84;4952716;29;1479;-59
2021/06/17 08:38:34;;;;;;;;;;;;;;;21.03;76.00;101001.75;4949841;28;1992;-59
2021/06/17 08:41:00;;;;;;;;;;;;;;;21.00;76.76;101010.09;4955499;29;1507;-59
2021/06/17 08:43:27;;;;;;;;;;;;;;;20.97;76.76;101002.28;4956683;28;1557;-59
2021/06/17 08:45:54;;;;;;;;;;;;;;;20.92;77.69;100994.66;4953931;28;1512;-59
2021/06/17 08:48:20;;;;;;;;;;;;;;;20.88;77.36;101009.38;4952066;28;1522;-59
2021/06/17 08:50:48;;;;;;;;;;;;;;;20.83;77.17;100992.81;4955335;28;1396;-67
2021/06/17 08:53:15;;;;;;;;;;;;;;;20.85;77.70;100993.56;4955477;28;1604;-69
2021/06/17 08:55:42;;;;;;;;;;;;;;;20.83;77.40;101008.94;4957035;28;1568;-68
2021/06/17 08:58:09;;;;;;;;;;;;;;;20.80;77.49;100996.66;4955372;28;1965;-68
2021/06/17 09:00:37;;;;;;;;;;;;;;;20.81;76.96;100979.53;4955401;28;1463;-69
2021/06/17 09:03:05;;;;;;;;;;;;;;;20.81;77.78;100992.13;4954107;28;1452;-68
2021/06/17 09:05:32;;;;;;;;;;;;;;;20.78;76.80;100987.88;4955316;28;1491;-68
2021/06/17 09:08:00;;;;;;;;;;;;;;;20.77;76.84;100994.25;4944113;28;1540;-59
2021/06/17 09:10:27;;;;;;;;;;;;;;;20.80;76.92;100995.81;4956546;29;1175;-59
2021/06/17 09:12:54;;;;;;;;;;;;;;;20.78;77.55;100993.25;4954534;28;1495;-69
2021/06/17 09:15:40;;;;;;;;;;;;;;;20.78;77.58;100998.63;4955080;28;1452;-60
2021/06/17 09:18:14;;;;;;;;;;;;;;;20.79;77.35;100999.47;4954097;29;1771;-60
2021/06/17 09:20:43;;;;;;;;;;;;;;;20.78;76.75;100997.78;4953459;28;1565;-68
2021/06/17 09:23:24;;;;;;;;;;;;;;;20.79;77.71;101005.72;4954282;29;1397;-68
2021/06/17 09:25:52;;;;;;;;;;;;;;;20.78;77.36;101017.44;4954373;29;1573;-68
2021/06/17 09:28:18;;;;;;;;;;;;;;;20.76;76.70;101016.75;4955427;29;1375;-68
2021/06/17 09:30:45;;;;;;;;;;;;;;;20.73;77.71;101006.28;4951670;29;1475;-68
2021/06/17 09:33:14;;;;;;;;;;;;;;;20.73;77.50;101002.72;4951112;28;1507;-68
2021/06/17 09:35:50;;;;;;;;;;;;;;;20.76;77.87;101010.53;4950240;29;1491;-59
2021/06/17 09:38:17;;;;;;;;;;;;;;;20.76;76.45;101015.91;4951659;29;1969;-68
2021/06/17 09:40:47;;;;;;;;;;;;;;;20.73;77.04;101002.72;4952103;29;2010;-59
2021/06/17 09:43:15;;;;;;;;;;;;;;;20.75;76.83;101009.69;4955030;28;1712;-68
2021/06/17 09:45:50;;;;;;;;;;;;;;;20.75;77.08;101006.13;4953325;28;1472;-60
2021/06/17 09:48:29;;;;;;;;;;;;;;;20.70;77.15;100989.59;4952151;28;1795;-68
2021/06/17 09:50:55;;;;;;;;;;;;;;;20.70;77.74;101003.03;4950800;29;1783;-59
2021/06/17 09:53:24;;;;;;;;;;;;;;;20.70;77.08;100990.44;4953322;28;1651;-59
2021/06/17 09:55:52;;;;;;;;;;;;;;;20.70;77.33;101000.34;4955743;28;1844;-68
2021/06/17 09:58:34;;;;;;;;;;;;;;;20.71;77.44;100996.66;4949400;29;1383;-66
2021/06/17 10:01:01;;;;;;;;;;;;;;;20.70;76.89;100995.81;4952300;29;1464;-60
2021/06/17 10:03:28;;;;;;;;;;;;;;;20.69;76.38;100993.25;4949281;28;1511;-59
2021/06/17 10:05:55;;;;;;;;;;;;;;;20.73;77.57;100995.53;4943827;28;1513;-68
2021/06/17 10:08:21;;;;;;;;;;;;;;;20.65;76.49;100990.88;4952139;28;1966;-59
2021/06/17 10:10:48;;;;;;;;;;;;;;;20.68;77.24;101000.47;4956425;28;1030;-59
2021/06/17 10:13:17;;;;;;;;;;;;;;;20.68;77.44;100987.03;4954726;28;1512;-63
2021/06/17 10:15:43;;;;;;;;;;;;;;;20.65;76.99;100990.88;4955421;28;1676;-68
2021/06/17 10:18:10;;;;;;;;;;;;;;;20.65;76.67;100980.13;4954950;28;1763;-68
2021/06/17 10:20:37;;;;;;;;;;;;;;;20.68;76.84;100980.81;4952188;28;1910;-68
2021/06/17 10:23:04;;;;;;;;;;;;;;;20.65;77.65;100980.13;4952819;29;1708;-68
2021/06/17 10:25:32;;;;;;;;;;;;;;;20.68;77.59;100987.03;4955134;28;1754;-59
2021/06/17 10:28:01;;;;;;;;;;;;;;;20.66;77.32;100968.34;4950965;28;1452;-68
2021/06/17 10:30:42;;;;;;;;;;;;;;;20.65;76.58;100965.81;4954315;28;1370;-68
2021/06/17 10:33:24;;;;;;;;;;;;;;;20.64;77.15;100962.28;4951598;29;1875;-69
2021/06/17 10:35:50;;;;;;;;;;;;;;;20.66;76.57;100957.59;4947170;28;1939;-69
2021/06/17 10:38:17;;;;;;;;;;;;;;;20.66;76.43;100968.34;4950247;29;1459;-68
2021/06/17 10:40:44;;;;;;;;;;;;;;;20.65;77.36;100953.25;4952082;29;1910;-69
2021/06/17 10:43:19;;;;;;;;;;;;;;;20.63;76.61;100943.59;4953197;29;1560;-68
2021/06/17 10:45:48;;;;;;;;;;;;;;;20.62;76.54;100939.25;4954314;29;1624;-68
2021/06/17 10:48:17;;;;;;;;;;;;;;;20.63;77.27;100941.78;4954252;28;1636;-68
2021/06/17 10:50:51;;;;;;;;;;;;;;;20.64;77.43;100943.47;4952409;29;1641;-69
2021/06/17 10:53:19;;;;;;;;;;;;;;;20.63;77.32;100939.09;4956976;28;1509;-68
2021/06/17 10:55:53;;;;;;;;;;;;;;;20.64;77.18;100942.63;4954710;28;1679;-59
2021/06/17 10:58:35;;;;;;;;;;;;;;;20.62;77.22;100940.06;4958708;29;1518;-59
2021/06/17 11:01:02;;;;;;;;;;;;;;;20.61;77.40;100933.03;4951801;28;1973;-68
2021/06/17 11:03:41;;;;;;;;;;;;;;;20.63;77.11;100938.22;4962753;28;1519;-68
2021/06/17 11:06:07;;;;;;;;;;;;;;;20.62;76.87;100937.38;4958627;28;1504;-59
2021/06/17 11:08:34;;;;;;;;;;;;;;;20.63;77.01;100936.41;4958399;28;1886;-68
2021/06/17 11:11:02;;;;;;;;;;;;;;;20.63;76.66;100947.16;4955799;28;1492;-68
2021/06/17 11:13:29;;;;;;;;;;;;;;;20.65;76.64;100937.13;4953147;28;1356;-69
2021/06/17 11:15:56;;;;;;;;;;;;;;;20.71;77.08;100954.53;4949630;29;1773;-67
2021/06/17 11:18:41;;;;;;;;;;;;;;;20.71;76.73;100953.66;4955360;28;1494;-59
2021/06/17 11:21:23;;;;;;;;;;;;;;;20.70;76.39;100957.34;4954569;28;1973;-69
2021/06/17 11:23:51;;;;;;;;;;;;;;;20.77;76.36;100953.06;4956086;28;1397;-68
2021/06/17 11:26:32;;;;;;;;;;;;;;;20.74;75.82;100956.91;4962304;28;1728;-69
2021/06/17 11:28:59;;;;;;;;;;;;;;;20.73;76.84;100963.28;4954579;28;1725;-59
2021/06/17 11:31:40;;;;;;;;;;;;;;;20.75;76.26;100965.81;4959425;28;1516;-60
2021/06/17 11:34:07;;;;;;;;;;;;;;;20.74;76.26;100958.75;4956506;28;1570;-69
2021/06/17 11:36:34;;;;;;;;;;;;;;;20.68;76.30;100965.53;4958241;29;1582;-60
2021/06/17 11:39:03;;;;;;;;;;;;;;;20.71;76.35;100969.78;4962278;28;1903;-69
2021/06/17 11:41:31;;;;;;;;;;;;;;;20.69;77.25;100975.31;4965179;28;1688;-69
2021/06/17 11:44:02;;;;;;;;;;;;;;;20.70;77.10;100976.16;4958127;28;1562;-60
2021/06/17 11:46:30;;;;;;;;;;;;;;;20.70;76.63;100968.09;4954069;28;1507;-69
2021/06/17 11:48:58;;;;;;;;;;;;;;;20.71;76.22;100975.16;4957661;28;1550;-60
2021/06/17 11:51:25;;;;;;;;;;;;;;;20.68;76.49;100967.38;4951272;28;1293;-60
2021/06/17 11:53:53;;;;;;;;;;;;;;;20.69;77.10;100977.13;4956514;28;1627;-70
2021/06/17 11:56:25;;;;;;;;;;;;;;;20.68;76.75;100970.91;4963022;28;1532;-70
2021/06/17 11:58:52;;;;;;;;;;;;;;;20.69;77.10;100964.56;4957523;28;1331;-69
2021/06/17 12:01:18;;;;;;;;;;;;;;;20.70;76.54;100968.09;4950051;28;1945;-60
2021/06/17 12:03:52;;;;;;;;;;;;;;;20.69;77.40;100978.00;4954214;28;1515;-60
2021/06/17 12:06:18;;;;;;;;;;;;;;;20.69;77.05;100969.94;4952166;29;1504;-60
2021/06/17 12:08:45;;;;;;;;;;;;;;;20.67;77.40;100953.06;4955746;28;1632;-70
2021/06/17 12:11:18;;;;;;;;;;;;;;;20.68;77.12;100959.31;4946499;28;1613;-60
2021/06/17 12:13:50;;;;;;;;;;;;;;;20.68;77.23;100964.69;4954792;28;1635;-68
2021/06/17 12:16:18;;;;;;;;;;;;;;;20.69;77.36;100959.19;4951984;29;1647;-59
2021/06/17 12:18:44;;;;;;;;;;;;;;;20.71;76.63;100942.91;4955133;29;1595;-68
2021/06/17 12:21:11;;;;;;;;;;;;;;;20.69;76.81;100945.75;4955224;28;1915;-60
2021/06/17 12:23:38;;;;;;;;;;;;;;;20.73;76.93;100951.66;4949415;29;1704;-71
2021/06/17 12:26:06;;;;;;;;;;;;;;;20.73;76.76;100946.28;4956082;28;1477;-70
2021/06/17 12:28:48;;;;;;;;;;;;;;;20.70;76.32;100941.22;4953197;29;1558;-60
2021/06/17 12:31:24;;;;;;;;;;;;;;;20.72;76.81;100926.63;4956035;28;1532;-59
2021/06/17 12:33:51;;;;;;;;;;;;;;;20.70;76.66;100919.72;4954490;28;1715;-59
2021/06/17 12:36:17;;;;;;;;;;;;;;;20.72;77.01;100926.63;4955977;29;1495;-60
2021/06/17 12:38:44;;;;;;;;;;;;;;;20.76;75.99;100919.97;4955679;28;1472;-59
2021/06/17 12:41:11;;;;;;;;;;;;;;;20.76;77.47;100935.28;4955872;29;1910;-68
2021/06/17 12:43:41;;;;;;;;;;;;;;;20.78;76.26;100917.16;4955074;28;1449;-70
2021/06/17 12:46:08;;;;;;;;;;;;;;;20.81;77.03;100924.91;4954264;29;1470;-59
2021/06/17 12:54:22;;;;;;;;;;;;;;;20.91;75.88;100927.59;4953406;29;1623;-68
2021/06/17 12:56:50;;;;;;;;;;;;;;;20.92;76.35;100927.47;4950426;29;1492;-60
2021/06/17 12:59:16;;;;;;;;;;;;;;;20.93;75.97;100921.09;4952823;28;1442;-60
2021/06/17 13:01:47;;;;;;;;;;;;;;;20.95;76.07;100935.25;4950353;29;1974;-69
2021/06/17 13:04:16;;;;;;;;;;;;;;;20.98;75.71;100923.34;4952077;29;1435;-61
2021/06/17 13:06:43;;;;;;;;;;;;;;;21.04;75.42;100929.00;4954895;28;1520;-63
2021/06/17 13:09:19;;;;;;;;;;;;;;;21.02;75.84;100947.09;4951695;28;1635;-62
2021/06/17 13:11:46;;;;;;;;;;;;;;;20.98;75.69;100940.31;4948747;29;1542;-64
2021/06/17 13:14:12;;;;;;;;;;;;;;;20.96;76.16;100936.94;4953635;28;1566;-63
2021/06/17 13:16:39;;;;;;;;;;;;;;;20.97;76.06;100944.03;4953804;28;1527;-65
2021/06/17 13:19:09;;;;;;;;;;;;;;;20.96;76.15;100936.94;4954428;28;1536;-60
2021/06/17 13:21:37;;;;;;;;;;;;;;;20.99;75.78;100936.66;4946454;29;1987;-62
2021/06/17 13:24:16;;;;;;;;;;;;;;;21.00;75.96;100924.06;4953728;28;1556;-62
2021/06/17 13:26:42;;;;;;;;;;;;;;;20.99;76.17;100931.28;4955409;29;1408;-61
2021/06/17 13:29:13;;;;;;;;;;;;;;;20.99;75.81;100925.91;4950906;28;1596;-61
2021/06/17 13:31:40;;;;;;;;;;;;;;;20.98;75.94;100929.56;4951021;29;1626;-61
2021/06/17 13:34:08;;;;;;;;;;;;;;;20.94;75.98;100913.88;4953866;29;1539;-68
2021/06/17 13:36:35;;;;;;;;;;;;;;;20.97;76.20;100921.63;4955281;29;1663;-67
2021/06/17 13:39:03;;;;;;;;;;;;;;;20.97;75.77;100916.25;4956298;29;1547;-62
2021/06/17 13:41:30;;;;;;;;;;;;;;;21.00;75.21;100926.75;4951627;28;1911;-61
2021/06/17 13:43:56;;;;;;;;;;;;;;;20.99;76.03;100922.34;4955051;28;1667;-70
2021/06/17 13:46:23;;;;;;;;;;;;;;;21.04;75.49;100931.69;4953499;28;1610;-63
2021/06/17 13:48:52;;;;;;;;;;;;;;;21.02;75.74;100922.91;4955493;28;1481;-67
2021/06/17 13:51:18;;;;;;;;;;;;;;;20.98;75.69;100923.34;4955943;29;1549;-63
2021/06/17 13:53:45;;;;;;;;;;;;;;;20.97;76.28;100922.50;4954346;28;1452;-62
2021/06/17 13:56:13;;;;;;;;;;;;;;;21.04;76.22;100934.38;4952762;28;1700;-61
2021/06/17 13:58:39;;;;;;;;;;;;;;;21.03;75.71;100940.75;4954861;28;1601;-62
2021/06/17 14:01:07;;;;;;;;;;;;;;;21.10;75.68;100945.53;4945995;29;1950;-68
2021/06/17 14:03:34;;;;;;;;;;;;;;;21.06;75.41;100945.81;4945720;29;1828;-61
2021/06/17 14:06:00;;;;;;;;;;;;;;;21.09;75.90;100943.84;4947805;28;1500;-61
2021/06/17 14:08:27;;;;;;;;;;;;;;;21.01;75.23;100937.34;4955085;29;1543;-67
2021/06/17 14:10:53;;;;;;;;;;;;;;;20.98;75.48;100934.94;4955597;28;1577;-61
2021/06/17 14:13:21;;;;;;;;;;;;;;;21.01;75.26;100947.28;4955525;29;1620;-61
2021/06/17 14:15:48;;;;;;;;;;;;;;;21.05;75.83;100944.13;4955541;28;1604;-61
2021/06/17 14:18:15;;;;;;;;;;;;;;;21.01;74.94;100931.97;4954391;29;1567;-61
2021/06/17 14:20:42;;;;;;;;;;;;;;;21.09;75.53;100935.78;4954765;28;1981;-61
2021/06/17 14:23:09;;;;;;;;;;;;;;;21.09;75.69;100946.53;4954045;28;1585;-60
2021/06/17 14:25:36;;;;;;;;;;;;;;;21.09;75.15;100950.09;4951513;29;1430;-64
2021/06/17 14:28:03;;;;;;;;;;;;;;;21.04;75.83;100945.13;4954150;28;1704;-62
2021/06/17 14:30:31;;;;;;;;;;;;;;;21.04;75.88;100955.88;4955899;28;1663;-60
2021/06/17 14:32:57;;;;;;;;;;;;;;;21.00;76.04;100949.09;4957900;28;1504;-61
2021/06/17 14:35:24;;;;;;;;;;;;;;;20.96;75.69;100949.53;4954817;29;1639;-61
2021/06/17 14:37:50;;;;;;;;;;;;;;;20.96;75.78;100969.19;4956074;29;1446;-60
2021/06/17 14:40:17;;;;;;;;;;;;;;;20.94;76.06;100960.41;4952937;29;1969;-61
2021/06/17 14:42:44;;;;;;;;;;;;;;;20.93;75.74;100961.44;4954084;29;1645;-61
2021/06/17 14:45:11;;;;;;;;;;;;;;;20.92;76.40;100961.56;4958364;28;1575;-61
2021/06/17 14:47:39;;;;;;;;;;;;;;;20.94;76.63;100968.50;4958140;28;1428;-60
2021/06/17 14:50:06;;;;;;;;;;;;;;;20.93;76.68;100974.00;4957905;28;1593;-61
2021/06/17 14:52:33;;;;;;;;;;;;;;;20.95;75.88;100970.19;4957440;28;1627;-60
2021/06/17 14:54:59;;;;;;;;;;;;;;;20.96;75.81;100973.72;4956855;29;1584;-61
2021/06/17 14:57:26;;;;;;;;;;;;;;;20.95;75.33;100959.44;4952875;29;1592;-61
2021/06/17 14:59:52;;;;;;;;;;;;;;;20.95;75.51;100951.38;4955231;28;1250;-61
2021/06/17 15:02:19;;;;;;;;;;;;;;;20.93;75.50;100955.19;4953196;28;1902;-61